Time;durP1;ratioP1;P1;durP2;ratioP2;P2;SDS_P1;SDS_P2;PMS_P1;PMS_P2;Temp;Humidity;BMP_temperature;BMP_pressure;BME280_temperature;BME280_humidity;BME280_pressure;Samples;Min_cycle;Max_cycle;Signal;HPM_P1;HPM_P2
2022/04/10 00:02:24;;;;;;;4.90;2.80;;;;;;;3.50;58.65;99408.77;127671;1290;99482;-77
2022/04/10 00:05:27;;;;;;;4.60;2.20;;;;;;;3.44;58.35;99404.52;127596;1290;100443;-77
2022/04/10 00:08:30;;;;;;;4.50;2.30;;;;;;;3.38;58.12;99406.14;127647;1290;100580;-76
2022/04/10 00:11:33;;;;;;;5.90;2.40;;;;;;;3.33;58.20;99409.64;127645;1290;99386;-77
2022/04/10 00:14:36;;;;;;;4.60;2.20;;;;;;;3.31;58.31;99413.20;127679;1290;100181;-76
2022/04/10 00:17:39;;;;;;;5.10;2.50;;;;;;;3.25;58.46;99413.85;127635;1290;99479;-77
2022/04/10 00:20:43;;;;;;;5.40;2.40;;;;;;;3.23;58.31;99420.02;127651;1290;101123;-77
2022/04/10 00:23:45;;;;;;;4.10;2.00;;;;;;;3.20;58.75;99425.39;127361;1290;420019;-77
2022/04/10 00:26:48;;;;;;;6.70;2.40;;;;;;;3.15;58.94;99425.02;127688;1290;99431;-76
2022/04/10 00:29:51;;;;;;;6.30;2.70;;;;;;;3.12;59.08;99424.70;127674;1290;100573;-77
2022/04/10 00:32:54;;;;;;;7.50;2.30;;;;;;;3.13;58.73;99428.20;127700;1290;99476;-76
2022/04/10 00:35:57;;;;;;;5.50;2.00;;;;;;;3.18;58.85;99429.41;127674;1290;100554;-76
2022/04/10 00:39:00;;;;;;;6.20;2.60;;;;;;;3.24;58.84;99433.48;127670;1290;99364;-75
2022/04/10 00:42:03;;;;;;;4.90;2.50;;;;;;;3.30;58.91;99436.10;127666;1290;99408;-75
2022/04/10 00:45:08;;;;;;;4.30;2.40;;;;;;;3.33;58.70;99441.31;127751;1290;99331;-75
2022/04/10 00:48:11;;;;;;;6.50;2.50;;;;;;;3.34;58.72;99443.48;127709;1290;100556;-76
2022/04/10 00:54:36;;;;;;;4.60;2.40;;;;;;;3.32;58.80;99447.90;127701;1290;99379;-76
2022/04/10 00:57:38;;;;;;;5.00;2.30;;;;;;;3.29;58.81;99453.61;127665;1290;99805;-76
2022/04/10 01:00:42;;;;;;;5.60;2.80;;;;;;;3.26;58.99;99459.82;127656;1290;99355;-77
2022/04/10 01:03:44;;;;;;;4.30;2.20;;;;;;;3.22;59.00;99456.30;127615;1290;99863;-76
2022/04/10 01:06:49;;;;;;;4.50;2.30;;;;;;;3.17;59.49;99456.17;127636;1290;99810;-76
2022/04/10 01:09:53;;;;;;;6.50;2.90;;;;;;;3.09;59.76;99459.11;127654;1290;99580;-76
2022/04/10 01:12:56;;;;;;;5.90;2.20;;;;;;;3.02;59.55;99461.06;127650;1290;99798;-75
2022/04/10 01:16:01;;;;;;;5.80;2.90;;;;;;;2.98;59.45;99464.60;127671;1291;99811;-76
2022/04/10 01:19:06;;;;;;;4.70;2.40;;;;;;;2.94;59.45;99469.29;127660;1290;99427;-75
2022/04/10 01:22:18;;;;;;;6.60;2.60;;;;;;;2.90;59.56;99472.60;127596;1291;99365;-78
2022/04/10 01:25:28;;;;;;;5.20;2.20;;;;;;;2.87;59.59;99475.25;127618;1290;99968;-78
2022/04/10 01:28:31;;;;;;;7.60;2.80;;;;;;;2.85;59.72;99474.00;127729;1290;99433;-77
2022/04/10 01:31:37;;;;;;;5.40;2.40;;;;;;;2.84;59.65;99473.92;127536;1291;99459;-77
2022/04/10 01:34:41;;;;;;;6.40;2.60;;;;;;;2.82;59.51;99475.85;127543;1290;100660;-77
2022/04/10 01:37:46;;;;;;;7.50;2.50;;;;;;;2.80;59.57;99474.98;127653;1290;100652;-76
2022/04/10 01:40:55;;;;;;;8.20;2.40;;;;;;;2.79;59.66;99478.90;127594;1290;99884;-74
2022/04/10 01:43:59;;;;;;;3.70;2.10;;;;;;;2.82;59.82;99481.00;127602;1290;99965;-73
2022/04/10 01:47:03;;;;;;;4.90;2.20;;;;;;;2.87;60.06;99480.39;127676;1290;99386;-75
2022/04/10 01:50:08;;;;;;;5.20;2.20;;;;;;;2.92;59.97;99477.67;127704;1290;99390;-75
2022/04/10 01:53:11;;;;;;;6.40;2.20;;;;;;;2.97;59.77;99483.48;127564;1290;99411;-75
2022/04/10 01:56:14;;;;;;;4.70;2.50;;;;;;;2.98;60.08;99488.45;127618;1291;99393;-74
2022/04/10 01:59:17;;;;;;;6.80;2.70;;;;;;;2.96;60.23;99492.66;127660;1290;99962;-75
2022/04/10 02:02:20;;;;;;;6.40;2.70;;;;;;;2.94;60.26;99499.13;127568;1290;99421;-75
2022/04/10 02:05:23;;;;;;;6.90;2.50;;;;;;;2.93;60.30;99504.83;127673;1290;99380;-75
2022/04/10 02:08:27;;;;;;;4.60;2.60;;;;;;;2.90;60.59;99515.43;127629;1290;100595;-74
2022/04/10 02:11:29;;;;;;;5.90;2.40;;;;;;;2.85;60.27;99515.50;127652;1290;100558;-74
2022/04/10 02:14:35;;;;;;;4.90;2.80;;;;;;;2.81;60.60;99524.55;127678;1290;99856;-74
2022/04/10 02:17:39;;;;;;;7.20;2.80;;;;;;;2.78;60.59;99529.92;127670;1290;99650;-73
2022/04/10 02:20:42;;;;;;;8.30;3.00;;;;;;;2.75;60.78;99533.69;127606;1291;99751;-73
2022/04/10 02:23:45;;;;;;;8.50;2.90;;;;;;;2.72;60.92;99532.15;127636;1290;99380;-75
2022/04/10 02:26:48;;;;;;;5.40;2.90;;;;;;;2.69;60.88;99531.63;127720;1290;99469;-76
2022/04/10 02:29:51;;;;;;;6.50;3.00;;;;;;;2.65;61.05;99534.77;127766;1290;99884;-76
2022/04/10 02:32:54;;;;;;;6.50;2.90;;;;;;;2.62;60.91;99535.38;127669;1290;99504;-76
2022/04/10 02:35:58;;;;;;;7.10;3.10;;;;;;;2.59;61.04;99537.74;127713;1290;100057;-75
2022/04/10 02:39:00;;;;;;;9.60;3.90;;;;;;;2.57;61.69;99533.70;127645;1290;99952;-74
2022/04/10 02:42:05;;;;;;;6.80;2.60;;;;;;;2.58;61.58;99538.65;127571;1290;99651;-74
2022/04/10 02:45:10;;;;;;;7.30;2.80;;;;;;;2.64;61.50;99540.48;127719;1290;100429;-74
2022/04/10 02:48:13;;;;;;;6.00;2.70;;;;;;;2.71;61.43;99543.22;127682;1290;99628;-74
2022/04/10 02:51:16;;;;;;;4.80;2.70;;;;;;;2.79;61.28;99544.77;127679;1290;99444;-75
2022/04/10 02:54:19;;;;;;;5.30;2.80;;;;;;;2.84;61.36;99548.42;127624;1290;99895;-74
2022/04/10 02:57:21;;;;;;;5.50;2.80;;;;;;;2.86;61.38;99548.98;127632;1290;100437;-75
2022/04/10 03:00:24;;;;;;;6.60;2.50;;;;;;;2.85;61.59;99548.36;127617;1290;100551;-74
2022/04/10 03:03:27;;;;;;;5.20;2.80;;;;;;;2.82;61.41;99547.20;127669;1290;99380;-74
2022/04/10 03:06:30;;;;;;;5.40;2.90;;;;;;;2.77;61.65;99549.87;127644;1290;99407;-74
2022/04/10 03:09:33;;;;;;;6.40;2.60;;;;;;;2.72;61.58;99551.99;127692;1290;99913;-74
2022/04/10 03:12:35;;;;;;;6.90;3.10;;;;;;;2.68;61.59;99557.54;127695;1291;99425;-74
2022/04/10 03:15:38;;;;;;;7.20;3.10;;;;;;;2.65;61.72;99555.88;127745;1290;100473;-75
2022/04/10 03:18:42;;;;;;;6.50;3.30;;;;;;;2.62;61.82;99559.48;127598;1291;99471;-75
2022/04/10 03:21:46;;;;;;;7.70;3.10;;;;;;;2.56;61.82;99562.34;127661;1290;99825;-75
2022/04/10 03:24:49;;;;;;;5.30;3.00;;;;;;;2.52;61.83;99562.66;127655;1290;100560;-74
2022/04/10 03:27:52;;;;;;;6.30;3.00;;;;;;;2.49;61.88;99565.35;127665;1290;99561;-74
2022/04/10 03:30:57;;;;;;;8.20;3.30;;;;;;;2.46;62.17;99569.13;127691;1290;99872;-74
2022/04/10 03:34:00;;;;;;;8.00;3.10;;;;;;;2.42;62.39;99572.02;127700;1290;100551;-73
2022/04/10 03:37:05;;;;;;;6.60;3.20;;;;;;;2.39;62.31;99572.81;127703;1291;99682;-75
2022/04/10 03:40:09;;;;;;;8.50;3.00;;;;;;;2.41;62.62;99576.20;127696;1290;100569;-74
2022/04/10 03:43:12;;;;;;;7.60;3.80;;;;;;;2.47;62.59;99578.33;127710;1290;99417;-73
2022/04/10 03:46:15;;;;;;;10.00;3.30;;;;;;;2.53;62.47;99582.44;127653;1291;99449;-74
2022/04/10 03:49:18;;;;;;;8.20;3.50;;;;;;;2.57;62.45;99587.08;127729;1290;100060;-74
2022/04/10 03:52:21;;;;;;;9.20;3.60;;;;;;;2.56;62.65;99596.05;127632;1291;99378;-74
2022/04/10 03:55:24;;;;;;;9.50;3.90;;;;;;;2.57;62.60;99603.18;127676;1290;99397;-75
2022/04/10 03:58:29;;;;;;;9.50;3.60;;;;;;;2.56;62.68;99610.64;127570;1290;99374;-74
2022/04/10 04:01:31;;;;;;;8.50;3.60;;;;;;;2.55;62.62;99618.59;127591;1291;99369;-75
2022/04/10 04:04:37;;;;;;;8.00;3.30;;;;;;;2.53;62.72;99621.89;127631;1290;100590;-74
2022/04/10 04:07:41;;;;;;;6.60;3.20;;;;;;;2.49;62.82;99631.69;127560;1291;100552;-74
2022/04/10 04:10:44;;;;;;;7.00;3.20;;;;;;;2.48;62.74;99636.52;127657;1291;99373;-75
2022/04/10 04:13:47;;;;;;;6.50;3.50;;;;;;;2.47;62.97;99635.16;127641;1291;99657;-73
2022/04/10 04:16:50;;;;;;;6.30;3.30;;;;;;;2.46;62.87;99640.89;127650;1290;99981;-73
2022/04/10 04:19:53;;;;;;;8.20;4.00;;;;;;;2.44;63.05;99641.24;127587;1290;100605;-73
2022/04/10 04:22:56;;;;;;;9.00;4.50;;;;;;;2.45;63.02;99643.26;127620;1290;99382;-72
2022/04/10 04:25:59;;;;;;;34.30;11.20;;;;;;;2.49;62.94;99653.30;127580;1290;100929;-73
2022/04/10 04:29:02;;;;;;;9.20;4.20;;;;;;;2.55;63.13;99652.13;127648;1290;99722;-74
2022/04/10 04:32:07;;;;;;;19.80;6.90;;;;;;;2.70;63.19;99659.25;127652;1290;99464;-75
2022/04/10 04:35:12;;;;;;;12.40;5.20;;;;;;;2.86;63.17;99665.80;127571;1290;99855;-74
2022/04/10 04:38:17;;;;;;;6.50;4.00;;;;;;;3.01;63.05;99669.04;127589;1290;100557;-73
2022/04/10 04:41:21;;;;;;;10.70;5.10;;;;;;;3.13;63.08;99677.71;127524;1290;100481;-74
2022/04/10 04:44:24;;;;;;;13.40;7.50;;;;;;;3.28;63.08;99684.16;127652;1290;99401;-74
2022/04/10 04:47:27;;;;;;;69.30;31.10;;;;;;;3.39;63.01;99684.85;127588;1291;99801;-74
2022/04/10 04:50:31;;;;;;;19.80;9.70;;;;;;;3.48;63.16;99690.42;127636;1290;99463;-75
2022/04/10 04:53:34;;;;;;;13.10;6.50;;;;;;;3.60;63.12;99696.69;127617;1290;99411;-76
2022/04/10 04:56:38;;;;;;;13.00;6.30;;;;;;;3.71;63.16;99701.27;127669;1290;99377;-76
2022/04/10 04:59:42;;;;;;;23.10;14.20;;;;;;;3.83;63.17;99699.48;127660;1290;100568;-75
2022/04/10 05:02:45;;;;;;;28.20;15.00;;;;;;;3.93;63.15;99698.81;127640;1290;99490;-75
2022/04/10 05:05:48;;;;;;;326.80;118.70;;;;;;;4.06;63.06;99702.90;127657;1290;99444;-75
2022/04/10 05:08:56;;;;;;;86.80;32.20;;;;;;;4.18;63.05;99700.87;127674;1290;100557;-75
2022/04/10 05:11:59;;;;;;;228.00;60.20;;;;;;;4.28;63.07;99702.31;127671;1290;99672;-75
2022/04/10 05:15:07;;;;;;;45.00;23.30;;;;;;;4.36;63.02;99700.41;127736;1290;99391;-74
2022/04/10 05:18:13;;;;;;;11.50;6.20;;;;;;;4.47;63.02;99699.70;127659;1290;100558;-75
2022/04/10 05:21:17;;;;;;;13.10;7.20;;;;;;;4.62;63.16;99699.34;127623;1291;99450;-75
2022/04/10 05:24:21;;;;;;;14.30;9.20;;;;;;;4.77;63.10;99695.79;127664;1290;99415;-74
2022/04/10 05:27:25;;;;;;;8.60;5.10;;;;;;;4.88;62.91;99694.84;127670;1290;99472;-73
2022/04/10 05:30:29;;;;;;;36.20;12.50;;;;;;;4.95;63.10;99699.98;127912;1290;99476;-75
2022/04/10 05:33:34;;;;;;;54.40;15.80;;;;;;;4.98;62.98;99706.13;127589;1291;99441;-74
2022/04/10 05:36:38;;;;;;;21.40;9.10;;;;;;;5.00;63.01;99707.25;127753;1290;99828;-75
2022/04/10 05:39:43;;;;;;;18.90;9.10;;;;;;;4.99;63.03;99708.73;127654;1291;99367;-75
2022/04/10 05:42:47;;;;;;;63.10;24.40;;;;;;;5.00;63.04;99708.43;127744;1290;99347;-75
2022/04/10 05:45:52;;;;;;;55.90;21.20;;;;;;;4.97;63.25;99713.52;127839;1290;99376;-75
2022/04/10 05:48:55;;;;;;;51.40;21.20;;;;;;;4.95;63.16;99714.73;127746;1291;99469;-73
2022/04/10 05:51:59;;;;;;;31.50;14.10;;;;;;;4.96;63.30;99714.30;127716;1290;99375;-76
2022/04/10 05:55:02;;;;;;;138.80;50.50;;;;;;;4.93;63.37;99718.95;127692;1290;99382;-74
2022/04/10 05:58:06;;;;;;;50.20;23.20;;;;;;;4.90;63.56;99713.95;127674;1290;99438;-75
2022/04/10 06:01:09;;;;;;;109.90;42.80;;;;;;;4.86;63.39;99719.02;127741;1290;99380;-76
2022/04/10 06:04:12;;;;;;;61.20;32.50;;;;;;;4.87;63.37;99715.05;127689;1290;99495;-75
2022/04/10 06:07:15;;;;;;;20.20;13.80;;;;;;;4.85;63.56;99715.52;127753;1291;100558;-76
2022/04/10 06:10:18;;;;;;;54.50;28.90;;;;;;;4.87;63.42;99709.52;127697;1290;99376;-75
2022/04/10 06:13:22;;;;;;;51.60;29.20;;;;;;;4.94;63.49;99706.52;127740;1290;100035;-77
2022/04/10 06:16:29;;;;;;;31.00;20.20;;;;;;;5.04;63.34;99712.73;127657;1290;99366;-75
2022/04/10 06:19:32;;;;;;;26.40;17.70;;;;;;;5.16;63.40;99716.98;127611;1291;99485;-74
2022/04/10 06:22:36;;;;;;;62.60;29.00;;;;;;;5.20;63.52;99725.68;127635;1290;99397;-74
2022/04/10 06:25:41;;;;;;;49.10;28.70;;;;;;;5.27;63.45;99727.69;127676;1290;99385;-74
2022/04/10 06:28:47;;;;;;;92.00;59.20;;;;;;;5.47;63.23;99728.92;127372;1294;99374;-77
2022/04/10 06:31:55;;;;;;;19.10;13.50;;;;;;;5.66;63.17;99730.33;127549;1290;99374;-78
2022/04/10 06:34:59;;;;;;;13.60;9.30;;;;;;;5.73;62.94;99738.88;127628;1290;99505;-78
2022/04/10 06:38:03;;;;;;;11.70;8.40;;;;;;;5.62;62.86;99745.14;127399;1291;99911;-78
2022/04/10 06:41:06;;;;;;;84.50;38.20;;;;;;;5.37;63.14;99748.01;127541;1290;100041;-79
2022/04/10 06:44:09;;;;;;;12.80;8.20;;;;;;;5.46;63.06;99743.89;127830;1290;100564;-82
2022/04/10 06:47:21;;;;;;;11.60;8.30;;;;;;;5.64;63.11;99743.58;127794;1290;99457;-75
2022/04/10 06:50:25;;;;;;;15.50;10.70;;;;;;;5.74;62.87;99746.14;127496;1291;99483;-77
2022/04/10 06:53:29;;;;;;;18.80;12.40;;;;;;;5.83;62.73;99748.23;127517;1291;99450;-75
2022/04/10 06:56:33;;;;;;;13.00;8.10;;;;;;;5.86;62.45;99758.67;127697;1290;99828;-76
2022/04/10 06:59:36;;;;;;;10.70;7.30;;;;;;;5.83;62.32;99759.89;127723;1290;99481;-77
2022/04/10 07:02:42;;;;;;;12.40;7.40;;;;;;;5.63;62.02;99762.14;127692;1290;99371;-75
2022/04/10 07:05:48;;;;;;;15.50;9.20;;;;;;;5.55;62.37;99763.02;127449;1290;99482;-74
2022/04/10 07:08:57;;;;;;;13.80;9.60;;;;;;;5.82;62.66;99758.39;127467;1291;100564;-74
2022/04/10 07:12:06;;;;;;;36.80;27.20;;;;;;;6.11;62.14;99763.77;127727;1291;99351;-76
2022/04/10 07:15:14;;;;;;;33.30;23.30;;;;;;;6.20;61.45;99770.54;127827;1290;99367;-77
2022/04/10 07:18:17;;;;;;;12.20;9.40;;;;;;;6.25;61.50;99774.73;127688;1290;99696;-74
2022/04/10 07:23:41;;;;;;;29.70;17.30;;;;;;;6.32;61.00;99782.27;127715;1291;99818;-76
2022/04/10 07:24:43;;;;;;;62.00;34.60;;;;;;;6.15;60.81;99787.48;127560;1293;99484;-75
2022/04/10 07:27:46;;;;;;;13.20;7.30;;;;;;;6.05;60.86;99791.50;127681;1290;99444;-77
2022/04/10 07:31:00;;;;;;;62.50;32.30;;;;;;;5.75;60.56;99805.93;127665;1290;100579;-75
2022/04/10 07:34:07;;;;;;;52.90;26.20;;;;;;;5.61;61.20;99798.17;127618;1291;99468;-75
2022/04/10 07:37:29;;;;;;;15.20;8.40;;;;;;;5.72;60.91;99802.30;127636;1290;99795;-75
2022/04/10 07:40:35;;;;;;;19.10;9.80;;;;;;;5.78;61.10;99801.39;127746;1290;100568;-80
2022/04/10 07:43:39;;;;;;;52.30;24.90;;;;;;;5.83;61.18;99803.81;127736;1291;99454;-75
2022/04/10 07:50:07;;;;;;;50.70;27.80;;;;;;;6.06;61.06;99810.10;127989;1290;99356;-77
2022/04/10 07:53:10;;;;;;;43.40;22.60;;;;;;;6.22;61.25;99809.79;127621;1294;99552;-75
2022/04/10 07:56:15;;;;;;;33.20;17.10;;;;;;;6.51;61.15;99807.70;127869;1290;99504;-73
2022/04/10 07:59:17;;;;;;;76.30;33.40;;;;;;;6.83;60.70;99807.39;127758;1293;99466;-71
2022/04/10 08:02:20;;;;;;;71.20;25.70;;;;;;;7.03;60.66;99810.30;127755;1290;99456;-72
2022/04/10 08:05:23;;;;;;;120.80;35.00;;;;;;;7.07;58.65;99822.11;127752;1290;99967;-73
2022/04/10 08:08:46;;;;;;;50.20;18.10;;;;;;;6.99;58.65;99826.17;127688;1291;99397;-75
2022/04/10 08:11:50;;;;;;;14.80;8.30;;;;;;;6.84;59.22;99821.42;127795;1290;99363;-72
2022/04/10 08:14:53;;;;;;;10.20;5.90;;;;;;;6.93;58.99;99826.10;127714;1290;99482;-72
2022/04/10 08:17:56;;;;;;;10.40;5.20;;;;;;;7.01;59.06;99834.30;127603;1291;99511;-72
2022/04/10 08:20:59;;;;;;;8.60;4.10;;;;;;;7.12;58.53;99841.50;127773;1290;100443;-74
2022/04/10 08:24:02;;;;;;;13.20;7.80;;;;;;;7.07;58.24;99849.67;127683;1290;99394;-74
2022/04/10 08:27:05;;;;;;;35.40;15.70;;;;;;;6.99;58.37;99850.73;127878;1290;100551;-72
2022/04/10 08:30:09;;;;;;;124.30;69.00;;;;;;;6.92;58.25;99859.23;127876;1290;99392;-76
2022/04/10 08:33:12;;;;;;;46.10;24.10;;;;;;;6.85;58.58;99862.32;127939;1290;99372;-73
2022/04/10 08:36:17;;;;;;;25.00;13.80;;;;;;;6.81;57.97;99870.42;127990;1290;100541;-76
2022/04/10 08:39:20;;;;;;;32.70;16.20;;;;;;;6.66;58.01;99874.40;127928;1290;99468;-75
2022/04/10 08:42:22;;;;;;;10.60;6.00;;;;;;;6.59;58.37;99882.45;127732;1290;100570;-76
2022/04/10 08:45:26;;;;;;;10.50;5.80;;;;;;;6.58;58.23;99883.45;128033;1290;99386;-76
2022/04/10 08:48:30;;;;;;;10.90;6.20;;;;;;;6.53;58.32;99883.20;128624;1290;99527;-73
2022/04/10 08:51:33;;;;;;;11.00;6.20;;;;;;;6.56;58.40;99889.65;127829;1289;99460;-74
2022/04/10 08:54:35;;;;;;;12.20;6.40;;;;;;;6.67;58.85;99888.33;127561;1290;99898;-74
2022/04/10 08:57:38;;;;;;;10.30;6.70;;;;;;;6.75;58.43;99889.20;128019;1290;99440;-74
2022/04/10 09:00:43;;;;;;;8.10;5.40;;;;;;;6.79;58.07;99894.20;127713;1290;99466;-75
2022/04/10 09:03:47;;;;;;;74.20;38.30;;;;;;;6.87;58.51;99894.46;127741;1290;99466;-74
2022/04/10 09:07:02;;;;;;;66.90;31.10;;;;;;;6.95;57.55;99894.27;127816;1290;99383;-76
2022/04/10 09:10:07;;;;;;;35.90;16.70;;;;;;;6.92;57.09;99897.20;127916;1290;99806;-75
2022/04/10 09:13:10;;;;;;;12.70;6.40;;;;;;;6.92;56.46;99899.38;128119;1290;99374;-76
2022/04/10 09:16:15;;;;;;;21.70;9.60;;;;;;;6.95;56.52;99897.85;127628;1290;99997;-74
2022/04/10 09:19:17;;;;;;;13.80;6.80;;;;;;;7.00;56.26;99904.97;127680;1290;99367;-76
2022/04/10 09:22:25;;;;;;;11.30;4.70;;;;;;;6.98;55.54;99906.73;127632;1290;100566;-75
2022/04/10 09:25:28;;;;;;;10.50;4.50;;;;;;;6.91;56.35;99908.27;127608;1290;99348;-74
2022/04/10 09:28:44;;;;;;;8.60;3.70;;;;;;;7.12;55.94;99912.45;127673;1291;99386;-75
2022/04/10 09:31:48;;;;;;;8.70;5.00;;;;;;;6.99;55.79;99908.04;127710;1290;99834;-76
2022/04/10 09:34:56;;;;;;;8.50;4.40;;;;;;;6.98;55.36;99916.49;127699;1291;99501;-79
2022/04/10 09:37:59;;;;;;;10.40;5.50;;;;;;;6.86;55.56;99917.23;128249;1290;99313;-79
2022/04/10 09:41:13;;;;;;;16.20;10.40;;;;;;;6.72;55.62;99922.33;128559;1290;99376;-76
2022/04/10 09:44:20;;;;;;;7.90;3.30;;;;;;;6.79;56.03;99918.35;127946;1290;100449;-78
2022/04/10 09:47:26;;;;;;;5.70;2.70;;;;;;;7.11;55.53;99916.20;128086;1290;99376;-79
2022/04/10 09:50:33;;;;;;;7.10;3.20;;;;;;;7.31;53.83;99917.97;127643;1290;100530;-78
2022/04/10 09:53:36;;;;;;;6.50;3.20;;;;;;;7.33;54.54;99915.23;127833;1290;99371;-76
2022/04/10 09:56:41;;;;;;;7.60;4.00;;;;;;;7.45;54.97;99915.73;127995;1290;99351;-75
2022/04/10 09:59:46;;;;;;;9.00;4.20;;;;;;;7.42;54.97;99918.45;127771;1290;99470;-73
2022/04/10 10:02:49;;;;;;;34.70;19.20;;;;;;;7.38;54.31;99919.61;128071;1290;99362;-75
2022/04/10 10:05:53;;;;;;;11.90;6.10;;;;;;;7.42;54.74;99920.98;127870;1290;99459;-77
2022/04/10 10:08:56;;;;;;;6.10;3.70;;;;;;;7.46;55.18;99919.23;127726;1290;99466;-75
2022/04/10 10:12:00;;;;;;;8.40;3.60;;;;;;;7.53;54.01;99917.36;127875;1290;99394;-75
2022/04/10 10:15:03;;;;;;;9.10;5.00;;;;;;;7.66;54.46;99924.81;128024;1290;100545;-74
2022/04/10 10:18:08;;;;;;;45.50;29.10;;;;;;;7.76;53.97;99920.01;127889;1290;99351;-75
2022/04/10 10:21:12;;;;;;;56.40;33.00;;;;;;;7.80;54.12;99924.94;127853;1290;99361;-75
2022/04/10 10:24:18;;;;;;;70.70;41.20;;;;;;;7.85;53.96;99926.73;127888;1290;99350;-73
2022/04/10 10:27:50;;;;;;;60.30;36.30;;;;;;;7.99;53.50;99925.42;127746;1290;99465;-72
2022/04/10 10:31:08;;;;;;;13.10;7.50;;;;;;;8.11;51.87;99921.30;127412;1290;99459;-73
2022/04/10 10:34:13;;;;;;;46.50;30.40;;;;;;;7.81;50.81;99918.81;127852;1290;100465;-73
2022/04/10 10:37:16;;;;;;;38.20;26.80;;;;;;;7.92;53.27;99912.13;127671;1291;99374;-75
2022/04/10 10:40:20;;;;;;;38.50;22.20;;;;;;;8.25;53.14;99913.05;127746;1291;99495;-74
2022/04/10 10:43:24;;;;;;;13.80;8.00;;;;;;;8.48;52.87;99909.48;127648;1290;99564;-75
2022/04/10 10:46:32;;;;;;;46.40;27.80;;;;;;;8.63;52.98;99914.27;127660;1291;100667;-76
2022/04/10 10:49:44;;;;;;;25.10;12.80;;;;;;;8.62;52.27;99915.35;127626;1291;99358;-75
2022/04/10 10:53:05;;;;;;;60.60;32.80;;;;;;;8.63;52.50;99909.98;127696;1290;99374;-76
2022/04/10 10:56:13;;;;;;;54.00;27.90;;;;;;;8.72;52.70;99908.77;127818;1290;100552;-76
2022/04/10 10:59:31;;;;;;;42.30;23.90;;;;;;;8.85;51.09;99902.92;127625;1290;99517;-76
2022/04/10 11:02:35;;;;;;;16.60;11.80;;;;;;;8.83;51.93;99903.94;127585;1290;100494;-75
2022/04/10 11:05:39;;;;;;;28.40;16.40;;;;;;;9.00;51.99;99905.38;127694;1290;99469;-74
2022/04/10 11:08:41;;;;;;;25.80;13.00;;;;;;;9.00;49.62;99908.50;127611;1290;99357;-78
2022/04/10 11:11:44;;;;;;;41.60;22.40;;;;;;;8.77;48.60;99913.81;127665;1290;99941;-78
2022/04/10 11:14:50;;;;;;;68.60;37.00;;;;;;;8.60;50.22;99913.44;127661;1290;99828;-77
2022/04/10 11:17:54;;;;;;;54.00;28.30;;;;;;;8.70;51.06;99914.11;127692;1290;99383;-76
2022/04/10 11:20:58;;;;;;;99.90;53.20;;;;;;;8.90;51.26;99911.40;127784;1290;100551;-75
2022/04/10 11:24:01;;;;;;;30.80;16.50;;;;;;;9.01;50.48;99913.56;127811;1290;99379;-75
2022/04/10 11:27:10;;;;;;;14.70;8.10;;;;;;;8.95;50.38;99913.95;127761;1290;100802;-77
2022/04/10 11:30:15;;;;;;;18.30;10.80;;;;;;;8.83;48.65;99922.10;127704;1291;99382;-73
2022/04/10 11:33:18;;;;;;;35.20;19.50;;;;;;;8.77;50.51;99917.48;127694;1290;99388;-74
2022/04/10 11:36:20;;;;;;;16.20;9.20;;;;;;;8.90;49.66;99922.67;127694;1290;100561;-75
2022/04/10 11:39:28;;;;;;;19.30;11.20;;;;;;;8.76;49.01;99927.21;127730;1290;99463;-76
2022/04/10 11:42:33;;;;;;;26.40;13.60;;;;;;;8.73;49.05;99922.18;127889;1290;100532;-74
2022/04/10 11:45:37;;;;;;;78.80;43.00;;;;;;;8.67;49.53;99923.76;127750;1290;100454;-73
2022/04/10 11:48:40;;;;;;;66.20;36.20;;;;;;;8.57;48.62;99928.79;127905;1290;100448;-76
2022/04/10 11:51:57;;;;;;;62.20;31.60;;;;;;;8.51;49.69;99928.15;127723;1290;99374;-76
2022/04/10 11:54:59;;;;;;;17.20;8.90;;;;;;;8.49;49.59;99928.95;131142;1290;99376;-74
2022/04/10 11:58:13;;;;;;;47.00;26.70;;;;;;;8.31;47.42;99930.18;127641;1290;99834;-75
2022/04/10 12:01:18;;;;;;;14.30;8.20;;;;;;;8.23;49.14;99932.02;127661;1290;99465;-75
2022/04/10 12:04:21;;;;;;;10.70;5.30;;;;;;;8.19;48.79;99936.13;127663;1290;99478;-75
2022/04/10 12:07:27;;;;;;;9.80;4.50;;;;;;;7.96;48.68;99944.00;127644;1290;101319;-75
2022/04/10 12:10:30;;;;;;;21.10;9.90;;;;;;;7.77;49.11;99936.66;127640;1290;99400;-75
2022/04/10 12:13:41;;;;;;;;;;;;;;;7.72;50.27;99940.00;127698;1290;99788;-75
2022/04/10 12:16:44;;;;;;;11.80;6.60;;;;;;;7.83;49.84;99937.94;127684;1291;99478;-75
2022/04/10 12:19:47;;;;;;;56.70;29.40;;;;;;;7.90;49.78;99937.64;127668;1290;99466;-75
2022/04/10 12:22:49;;;;;;;23.60;11.60;;;;;;;8.02;49.61;99943.41;127455;1290;311345;-74
2022/04/10 12:25:55;;;;;;;12.80;6.20;;;;;;;8.08;49.13;99937.37;127704;1290;99377;-76
2022/04/10 12:28:58;;;;;;;7.10;3.90;;;;;;;8.09;49.05;99934.96;127711;1290;99800;-75
2022/04/10 12:32:02;;;;;;;5.90;3.40;;;;;;;8.02;48.80;99941.50;127621;1291;99378;-76
2022/04/10 12:35:10;;;;;;;6.00;3.30;;;;;;;8.03;49.65;99936.55;127665;1291;99495;-76
2022/04/10 12:38:16;;;;;;;12.40;8.10;;;;;;;8.08;49.41;99940.88;127740;1290;99380;-76
2022/04/10 12:41:26;;;;;;;13.20;10.50;;;;;;;8.19;49.89;99938.23;127787;1291;100562;-76
2022/04/10 12:44:29;;;;;;;6.70;4.50;;;;;;;8.39;48.63;99935.89;127637;1291;99389;-75
2022/04/10 12:47:44;;;;;;;36.60;22.60;;;;;;;8.32;48.82;99934.60;127657;1290;99370;-76
2022/04/10 12:50:46;;;;;;;21.50;13.90;;;;;;;8.40;48.94;99932.36;127683;1290;99367;-75
2022/04/10 12:53:49;;;;;;;91.50;50.10;;;;;;;8.37;48.63;99936.56;127671;1291;99364;-77
2022/04/10 12:56:55;;;;;;;23.40;11.90;;;;;;;8.32;48.14;99936.71;127683;1290;99885;-78
2022/04/10 12:59:58;;;;;;;17.50;8.70;;;;;;;8.28;48.98;99932.99;127608;1291;99780;-75
2022/04/10 13:03:19;;;;;;;12.00;6.00;;;;;;;8.24;48.82;99933.73;127679;1291;99759;-74
2022/04/10 13:06:27;;;;;;;34.10;23.00;;;;;;;8.16;49.23;99932.66;127742;1290;99457;-76
2022/04/10 13:09:30;;;;;;;7.90;4.80;;;;;;;8.08;48.70;99935.91;127904;1289;99376;-77
2022/04/10 13:12:34;;;;;;;15.30;7.90;;;;;;;7.86;48.71;99938.68;127816;1290;99376;-77
2022/04/10 13:15:38;;;;;;;14.60;10.30;;;;;;;7.68;48.71;99939.11;128412;1290;99471;-76
2022/04/10 13:18:41;;;;;;;18.60;11.00;;;;;;;7.60;49.04;99940.58;127732;1290;99357;-75
2022/04/10 13:21:45;;;;;;;13.40;7.50;;;;;;;7.59;49.14;99937.52;127695;1290;102809;-75
2022/04/10 13:24:48;;;;;;;8.40;5.50;;;;;;;7.63;49.38;99937.08;127873;1290;99353;-77
2022/04/10 13:27:53;;;;;;;11.90;8.50;;;;;;;7.82;49.69;99935.86;127789;1290;99399;-76
2022/04/10 13:30:55;;;;;;;13.00;6.90;;;;;;;7.85;48.92;99937.40;127739;1290;99366;-78
2022/04/10 13:33:58;;;;;;;6.60;4.20;;;;;;;7.88;49.43;99937.98;127709;1289;99357;-75
2022/04/10 13:37:02;;;;;;;8.20;5.70;;;;;;;7.88;49.08;99939.78;127686;1290;99811;-75
2022/04/10 13:40:08;;;;;;;10.00;6.40;;;;;;;7.75;48.99;99944.12;127834;1290;100564;-76
2022/04/10 13:43:11;;;;;;;11.80;6.50;;;;;;;7.58;49.39;99944.29;127815;1290;99475;-78
2022/04/10 13:46:14;;;;;;;17.60;9.40;;;;;;;7.55;49.61;99947.81;127708;1291;99379;-76
2022/04/10 13:49:17;;;;;;;27.50;16.90;;;;;;;7.62;49.66;99943.36;127973;1290;99366;-78
2022/04/10 13:52:19;;;;;;;21.00;16.00;;;;;;;7.70;49.76;99942.84;127707;1290;99393;-79
2022/04/10 13:55:22;;;;;;;17.40;12.50;;;;;;;7.79;49.43;99943.05;127834;1294;99401;-78
2022/04/10 13:58:25;;;;;;;26.30;13.60;;;;;;;7.88;49.33;99949.52;127961;1290;100547;-78
2022/04/10 14:01:28;;;;;;;38.20;23.20;;;;;;;7.79;48.63;99954.79;127915;1294;100793;-79
2022/04/10 14:04:32;;;;;;;21.90;11.90;;;;;;;7.64;48.98;99954.91;127682;1293;101427;-75
2022/04/10 14:07:34;;;;;;;28.60;17.10;;;;;;;7.52;48.76;99961.82;127775;1293;99389;-79
2022/04/10 14:10:37;;;;;;;32.10;19.10;;;;;;;7.45;49.09;99960.48;127971;1290;99366;-75
2022/04/10 14:13:40;;;;;;;104.30;59.50;;;;;;;7.43;49.33;99963.33;127791;1290;100589;-77
2022/04/10 14:16:43;;;;;;;70.60;39.50;;;;;;;7.44;49.40;99962.59;127838;1290;99454;-77
2022/04/10 14:19:45;;;;;;;20.40;10.90;;;;;;;7.45;49.91;99963.67;127915;1291;99444;-77
2022/04/10 14:22:48;;;;;;;56.90;29.10;;;;;;;7.44;49.42;99965.17;127913;1290;99391;-79
2022/04/10 14:25:51;;;;;;;30.70;15.70;;;;;;;7.42;49.79;99959.49;127797;1290;100689;-81